createdAt,value
2018-04-17T00:00:35.179Z,102189.84
2018-04-17T00:03:01.574Z,102187.19
2018-04-17T00:05:27.795Z,102199.03
2018-04-17T00:07:54.381Z,102192.91
2018-04-17T00:10:20.684Z,102184.61
2018-04-17T00:12:46.857Z,102174.53
2018-04-17T00:15:13.274Z,102188.98
2018-04-17T00:17:39.518Z,102182.41
2018-04-17T00:20:05.753Z,102181.11
2018-04-17T00:22:32.162Z,102184.62
2018-04-17T00:24:58.393Z,102187.70
2018-04-17T00:27:24.628Z,102181.60
2018-04-17T00:29:50.975Z,102182.05
2018-04-17T00:32:17.221Z,102186.84
2018-04-17T00:34:43.537Z,102183.80
2018-04-17T00:37:09.723Z,102185.08
2018-04-17T00:39:35.966Z,102187.73
2018-04-17T00:42:02.498Z,102188.17
2018-04-17T00:44:29.195Z,102196.50
2018-04-17T00:46:55.405Z,102200.42
2018-04-17T00:49:21.640Z,102207.44
2018-04-17T00:51:48.106Z,102208.31
2018-04-17T00:54:14.387Z,102207.91
2018-04-17T00:56:41.097Z,102207.03
2018-04-17T00:59:07.293Z,102210.97
2018-04-17T01:01:33.474Z,102219.31
2018-04-17T01:03:59.955Z,102207.52
2018-04-17T01:06:26.161Z,102220.61
2018-04-17T01:08:52.367Z,102221.95
2018-04-17T01:11:18.605Z,102226.31
2018-04-17T01:13:44.900Z,102227.17
2018-04-17T01:16:11.125Z,102231.98
2018-04-17T01:18:37.354Z,102223.22
2018-04-17T01:21:03.601Z,102225.39
2018-04-17T01:23:29.781Z,102230.22
2018-04-17T01:25:55.962Z,102227.61
2018-04-17T01:28:22.196Z,102230.27
2018-04-17T01:30:48.445Z,102241.20
2018-04-17T01:33:15.045Z,102241.22
2018-04-17T01:35:41.286Z,102242.53
2018-04-17T01:38:07.515Z,102231.12
2018-04-17T01:40:34.024Z,102232.45
2018-04-17T01:43:00.270Z,102239.44
2018-04-17T01:45:26.785Z,102233.31
2018-04-17T01:47:53.059Z,102233.76
2018-04-17T01:50:19.440Z,102231.13
2018-04-17T01:52:45.675Z,102239.42
2018-04-17T01:55:11.832Z,102242.94
2018-04-17T01:57:38.052Z,102239.02
2018-04-17T02:00:04.300Z,102237.75
2018-04-17T02:02:30.578Z,102243.87
2018-04-17T02:04:56.753Z,102243.89
2018-04-17T02:07:23.023Z,102246.50
2018-04-17T02:09:49.274Z,102250.02
2018-04-17T02:12:15.505Z,102246.08
2018-04-17T02:14:42.106Z,102249.61
2018-04-17T02:17:08.376Z,102244.78
2018-04-17T02:19:34.924Z,102252.64
2018-04-17T02:22:01.827Z,102249.15
2018-04-17T02:24:28.055Z,102250.03
2018-04-17T02:26:54.221Z,102242.16
2018-04-17T02:29:21.150Z,102243.03
2018-04-17T02:31:48.284Z,102244.34
2018-04-17T02:34:14.457Z,102248.73
2018-04-17T02:36:40.653Z,102243.92
2018-04-17T02:39:06.983Z,102248.31
2018-04-17T02:41:33.176Z,102247.86
2018-04-17T02:43:59.461Z,102248.74
2018-04-17T02:46:25.990Z,102250.92
2018-04-17T02:48:52.170Z,102252.25
2018-04-17T02:51:18.382Z,102260.14
2018-04-17T02:53:44.881Z,102264.92
2018-04-17T02:56:11.402Z,102263.20
2018-04-17T02:58:37.718Z,102275.88
2018-04-17T03:01:03.891Z,102271.94
2018-04-17T03:03:30.129Z,102273.25
2018-04-17T03:05:56.721Z,102279.39
2018-04-17T03:08:23.000Z,102288.59
2018-04-17T03:10:49.210Z,102276.31
2018-04-17T03:13:15.434Z,102287.71
2018-04-17T03:15:41.671Z,102287.28
2018-04-17T03:18:07.925Z,102284.66
2018-04-17T03:20:34.466Z,102292.98
2018-04-17T03:23:00.703Z,102300.86
2018-04-17T03:25:26.885Z,102303.91
2018-04-17T03:27:53.448Z,102301.73
2018-04-17T03:30:19.712Z,102295.14
2018-04-17T03:32:45.968Z,102300.84
2018-04-17T03:35:12.259Z,102301.25
2018-04-17T03:37:38.437Z,102308.25
2018-04-17T03:40:04.610Z,102311.33
2018-04-17T03:42:30.832Z,102320.08
2018-04-17T03:44:57.107Z,102312.66
2018-04-17T03:47:23.342Z,102314.84
2018-04-17T03:49:50.014Z,102311.79
2018-04-17T03:52:16.258Z,102310.45
2018-04-17T03:54:42.450Z,102314.84
2018-04-17T03:57:08.653Z,102312.64
2018-04-17T03:59:34.978Z,102315.27
2018-04-17T04:02:01.196Z,102309.13
2018-04-17T04:04:27.391Z,102306.95
2018-04-17T04:06:53.680Z,102305.20
2018-04-17T04:09:19.845Z,102309.13
2018-04-17T04:11:46.179Z,102307.38
2018-04-17T04:14:12.421Z,102310.88
2018-04-17T04:16:51.213Z,102317.44
2018-04-17T04:19:29.763Z,102319.64
2018-04-17T04:22:08.354Z,102327.96
2018-04-17T04:24:46.712Z,102329.28
2018-04-17T04:27:13.573Z,102338.87
2018-04-17T04:29:39.805Z,102346.31
2018-04-17T04:32:06.024Z,102348.96
2018-04-17T04:34:32.320Z,102345.88
2018-04-17T04:36:58.768Z,102354.20
2018-04-17T04:39:25.058Z,102354.64
2018-04-17T04:41:51.370Z,102357.70
2018-04-17T04:44:17.973Z,102359.02
2018-04-17T04:46:44.165Z,102359.88
2018-04-17T04:49:10.418Z,102360.78
2018-04-17T04:51:36.710Z,102359.04
2018-04-17T04:54:02.885Z,102364.73
2018-04-17T04:56:29.223Z,102367.36
2018-04-17T04:58:55.400Z,102368.69
2018-04-17T05:01:21.581Z,102366.04
2018-04-17T05:03:47.855Z,102371.73
2018-04-17T05:06:14.098Z,102378.75
2018-04-17T05:08:40.761Z,102376.09
2018-04-17T05:11:07.036Z,102380.92
2018-04-17T05:13:33.228Z,102379.60
2018-04-17T05:15:59.457Z,102388.77
2018-04-17T05:18:25.696Z,102398.41
2018-04-17T05:20:52.029Z,102396.22
2018-04-17T05:23:18.384Z,102401.89
2018-04-17T05:25:44.559Z,102402.33
2018-04-17T05:28:10.756Z,102409.33
2018-04-17T05:30:37.380Z,102407.58
2018-04-17T05:33:03.861Z,102412.83
2018-04-17T05:35:30.057Z,102418.06
2018-04-17T05:37:56.787Z,102420.67
2018-04-17T05:40:22.978Z,102429.87
2018-04-17T05:42:49.268Z,102425.49
2018-04-17T05:45:15.607Z,102432.51
2018-04-17T05:47:41.834Z,102434.27
2018-04-17T05:50:08.150Z,102435.59
2018-04-17T05:52:34.391Z,102431.64
2018-04-17T05:55:00.582Z,102429.87
2018-04-17T05:57:26.847Z,102434.69
2018-04-17T05:59:53.566Z,102445.22
2018-04-17T06:02:19.801Z,102445.65
2018-04-17T06:04:46.235Z,102446.97
2018-04-17T06:07:12.581Z,102452.65
2018-04-17T06:09:38.828Z,102448.71
2018-04-17T06:12:05.190Z,102455.70
2018-04-17T06:14:31.435Z,102454.84
2018-04-17T06:16:57.627Z,102454.80
2018-04-17T06:19:23.859Z,102453.06
2018-04-17T06:21:50.082Z,102457.02
2018-04-17T06:24:16.265Z,102458.75
2018-04-17T06:26:42.625Z,102458.73
2018-04-17T06:29:09.071Z,102461.78
2018-04-17T06:31:35.322Z,102462.68
2018-04-17T06:34:01.634Z,102464.88
2018-04-17T06:36:27.833Z,102467.52
2018-04-17T06:38:54.149Z,102472.80
2018-04-17T06:41:20.545Z,102471.04
2018-04-17T06:43:46.816Z,102480.66
2018-04-17T06:46:13.141Z,102477.61
2018-04-17T06:48:39.374Z,102476.28
2018-04-17T06:51:05.693Z,102478.47
2018-04-17T06:53:31.966Z,102486.38
2018-04-17T06:55:58.194Z,102489.41
2018-04-17T06:58:24.440Z,102496.00
2018-04-17T07:00:50.709Z,102499.08
2018-04-17T07:03:16.884Z,102501.26
2018-04-17T07:05:43.113Z,102499.50
2018-04-17T07:08:09.369Z,102492.05
2018-04-17T07:10:35.621Z,102498.63
2018-04-17T07:13:01.883Z,102500.36
2018-04-17T07:15:28.064Z,102501.25
2018-04-17T07:17:54.321Z,102496.86
2018-04-17T07:20:20.567Z,102495.55
2018-04-17T07:22:46.778Z,102496.00
2018-04-17T07:25:12.999Z,102495.55
2018-04-17T07:27:39.560Z,102498.61
2018-04-17T07:30:05.774Z,102502.98
2018-04-17T07:32:31.980Z,102501.67
2018-04-17T07:34:58.165Z,102507.38
2018-04-17T07:37:24.411Z,102509.13
2018-04-17T07:39:51.457Z,102509.14
2018-04-17T07:42:18.206Z,102511.30
2018-04-17T07:44:44.495Z,102516.56
2018-04-17T07:47:20.723Z,102515.70
2018-04-17T07:49:46.952Z,102516.60
2018-04-17T07:52:13.267Z,102518.80
2018-04-17T07:54:39.546Z,102523.62
2018-04-17T07:57:06.065Z,102524.88
2018-04-17T07:59:32.292Z,102529.32
2018-04-17T08:01:58.564Z,102524.06
2018-04-17T08:04:24.828Z,102527.98
2018-04-17T08:06:51.009Z,102530.63
2018-04-17T08:09:17.332Z,102548.15
2018-04-17T08:11:43.603Z,102548.59
2018-04-17T08:14:09.925Z,102548.13
2018-04-17T08:16:36.123Z,102549.42
2018-04-17T08:19:02.316Z,102551.20
2018-04-17T08:21:28.782Z,102553.38
2018-04-17T08:23:55.054Z,102554.27
2018-04-17T08:26:21.337Z,102562.16
2018-04-17T08:28:47.645Z,102559.53
2018-04-17T08:31:13.838Z,102556.01
2018-04-17T08:33:40.089Z,102559.09
2018-04-17T08:36:06.398Z,102562.13
2018-04-17T08:38:32.725Z,102569.59
2018-04-17T08:40:58.911Z,102573.11
2018-04-17T08:43:25.191Z,102572.67
2018-04-17T08:45:51.489Z,102576.59
2018-04-17T08:48:17.985Z,102573.98
2018-04-17T08:50:44.222Z,102572.67
2018-04-17T08:53:10.460Z,102579.24
2018-04-17T08:55:36.725Z,102584.48
2018-04-17T08:58:03.027Z,102585.80
2018-04-17T09:00:29.211Z,102586.69
2018-04-17T09:02:55.544Z,102586.27
2018-04-17T09:05:21.725Z,102587.55
2018-04-17T09:07:48.141Z,102587.12
2018-04-17T09:10:14.406Z,102587.11
2018-04-17T09:12:40.986Z,102587.98
2018-04-17T09:15:07.317Z,102580.98
2018-04-17T09:17:33.570Z,102579.22
2018-04-17T09:19:59.840Z,102580.93
2018-04-17T09:22:26.220Z,102582.25
2018-04-17T09:24:52.422Z,102586.20
2018-04-17T09:27:18.966Z,102582.23
2018-04-17T09:29:45.157Z,102590.55
2018-04-17T09:32:11.354Z,102600.66
2018-04-17T09:34:37.957Z,102601.09
2018-04-17T09:37:04.178Z,102605.90
2018-04-17T09:39:30.494Z,102598.88
2018-04-17T09:41:57.067Z,102601.94
2018-04-17T09:44:23.324Z,102606.75
2018-04-17T09:46:49.550Z,102604.58
2018-04-17T09:49:15.729Z,102605.44
2018-04-17T09:51:42.054Z,102603.27
2018-04-17T09:54:08.287Z,102603.70
2018-04-17T09:56:34.524Z,102606.31
2018-04-17T09:59:01.055Z,102606.73
2018-04-17T10:01:27.235Z,102608.47
2018-04-17T10:03:53.881Z,102606.73
2018-04-17T10:06:20.069Z,102611.54
2018-04-17T10:08:46.309Z,102604.95
2018-04-17T10:11:12.545Z,102604.06
2018-04-17T10:13:38.837Z,102602.33
2018-04-17T10:16:05.055Z,102606.70
2018-04-17T10:18:31.253Z,102615.88
2018-04-17T10:20:57.554Z,102614.11
2018-04-17T10:23:23.823Z,102611.50
2018-04-17T10:25:50.059Z,102606.23
2018-04-17T10:28:16.259Z,102606.23
2018-04-17T10:30:42.602Z,102610.64
2018-04-17T10:33:11.807Z,102602.25
2018-04-17T10:35:38.036Z,102590.83
2018-04-17T10:38:04.370Z,102596.96
2018-04-17T10:40:30.669Z,102590.38
2018-04-17T10:42:56.848Z,102593.02
2018-04-17T10:45:23.059Z,102593.45
2018-04-17T10:47:49.291Z,102592.11
2018-04-17T10:50:15.646Z,102592.95
2018-04-17T10:52:41.850Z,102598.21
2018-04-17T10:55:08.073Z,102595.53
2018-04-17T10:57:34.331Z,102599.45
2018-04-17T11:00:00.568Z,102608.64
2018-04-17T11:02:26.803Z,102606.88
2018-04-17T11:04:53.074Z,102600.71
2018-04-17T11:07:19.281Z,102595.84
2018-04-17T11:09:45.518Z,102600.20
2018-04-17T11:12:11.809Z,102599.34
2018-04-17T11:14:38.039Z,102599.78
2018-04-17T11:17:04.317Z,102601.94
2018-04-17T11:19:30.572Z,102604.48
2018-04-17T11:21:56.989Z,102602.27
2018-04-17T11:24:23.389Z,102591.33
2018-04-17T11:26:49.763Z,102604.04
2018-04-17T11:29:16.086Z,102609.34
2018-04-17T11:31:42.364Z,102608.88
2018-04-17T11:34:08.624Z,102616.30
2018-04-17T11:36:34.849Z,102616.33
2018-04-17T11:39:09.288Z,102600.02
2018-04-17T11:41:35.517Z,102610.06
2018-04-17T11:44:01.776Z,102613.64
2018-04-17T11:46:28.145Z,102613.23
2018-04-17T11:48:54.390Z,102619.80
2018-04-17T11:51:20.869Z,102604.84
2018-04-17T11:53:47.125Z,102602.64
2018-04-17T11:56:13.635Z,102601.70
2018-04-17T11:58:40.041Z,102606.49
2018-04-17T12:01:06.225Z,102609.52
2018-04-17T12:03:32.485Z,102610.83
2018-04-17T12:05:59.205Z,102609.87
2018-04-17T12:08:25.786Z,102605.03
2018-04-17T12:10:52.497Z,102612.45
2018-04-17T12:13:18.911Z,102608.00
2018-04-17T12:15:45.140Z,102616.76
2018-04-17T12:18:11.392Z,102614.51
2018-04-17T12:20:37.573Z,102604.82
2018-04-17T12:23:03.945Z,102604.74
2018-04-17T12:25:30.129Z,102606.88
2018-04-17T12:27:56.334Z,102609.95
2018-04-17T12:30:22.554Z,102602.91
2018-04-17T12:32:48.816Z,102603.72
2018-04-17T12:35:14.997Z,102601.42
2018-04-17T12:37:41.267Z,102600.03
2018-04-17T12:40:07.455Z,102604.73
2018-04-17T12:42:33.673Z,102608.95
2018-04-17T12:44:59.968Z,102610.09
2018-04-17T12:47:26.165Z,102611.68
2018-04-17T12:49:52.345Z,102608.59
2018-04-17T12:52:18.658Z,102619.61
2018-04-17T12:54:44.906Z,102611.69
2018-04-17T12:57:11.096Z,102603.31
2018-04-17T12:59:37.456Z,102613.96
2018-04-17T13:02:03.657Z,102607.35
2018-04-17T13:04:30.293Z,102602.05
2018-04-17T13:06:56.465Z,102605.95
2018-04-17T13:09:22.621Z,102603.72
2018-04-17T13:11:48.871Z,102599.29
2018-04-17T13:14:15.049Z,102606.32
2018-04-17T13:16:41.633Z,102605.86
2018-04-17T13:19:07.776Z,102607.98
2018-04-17T13:21:33.992Z,102604.88
2018-04-17T13:24:00.208Z,102601.75
2018-04-17T13:26:26.452Z,102596.02
2018-04-17T13:28:52.644Z,102605.31
2018-04-17T13:31:18.875Z,102604.47
2018-04-17T13:33:45.068Z,102611.53
2018-04-17T13:36:11.310Z,102610.66
2018-04-17T13:38:37.937Z,102613.28
2018-04-17T13:41:04.112Z,102616.38
2018-04-17T13:43:30.349Z,102614.58
2018-04-17T13:45:56.576Z,102616.30
2018-04-17T13:48:22.906Z,102623.73
2018-04-17T13:50:49.085Z,102616.20
2018-04-17T13:53:15.304Z,102620.14
2018-04-17T13:55:41.503Z,102618.73
2018-04-17T13:58:07.696Z,102611.17
2018-04-17T14:00:33.933Z,102609.40
2018-04-17T14:03:00.089Z,102612.42
2018-04-17T14:05:26.286Z,102612.35
2018-04-17T14:07:52.824Z,102611.41
2018-04-17T14:10:19.343Z,102606.02
2018-04-17T14:12:45.986Z,102607.64
2018-04-17T14:15:12.242Z,102606.66
2018-04-17T14:17:38.419Z,102607.83
2018-04-17T14:20:04.653Z,102612.50
2018-04-17T14:22:30.909Z,102616.66
2018-04-17T14:24:57.202Z,102611.95
2018-04-17T14:27:23.447Z,102623.05
2018-04-17T14:29:49.639Z,102621.70
2018-04-17T14:32:15.880Z,102616.84
2018-04-17T14:34:42.343Z,102616.11
2018-04-17T14:37:08.886Z,102612.32
2018-04-17T14:39:35.076Z,102612.12
2018-04-17T14:42:01.317Z,102607.55
2018-04-17T14:44:27.778Z,102604.05
2018-04-17T14:46:54.317Z,102600.38
2018-04-17T14:49:20.688Z,102597.49
2018-04-17T14:51:46.864Z,102587.71
2018-04-17T14:54:13.096Z,102592.30
2018-04-17T14:56:39.293Z,102598.91
2018-04-17T14:59:05.573Z,102596.75
2018-04-17T15:01:32.079Z,102596.22
2018-04-17T15:03:58.298Z,102599.88
2018-04-17T15:06:24.756Z,102602.34
2018-04-17T15:08:51.150Z,102602.48
2018-04-17T15:11:17.320Z,102602.90
2018-04-17T15:13:43.488Z,102599.28
2018-04-17T15:16:09.807Z,102603.06
2018-04-17T15:18:36.234Z,102600.94
2018-04-17T15:21:02.486Z,102600.91
2018-04-17T15:23:28.774Z,102598.17
2018-04-17T15:25:54.980Z,102609.97
2018-04-17T15:28:21.246Z,102617.18
2018-04-17T15:30:47.470Z,102617.48
2018-04-17T15:33:13.699Z,102613.95
2018-04-17T15:35:40.217Z,102619.95
2018-04-17T15:38:06.727Z,102628.37
2018-04-17T15:40:32.996Z,102626.75
2018-04-17T15:42:59.156Z,102631.23
2018-04-17T15:45:25.313Z,102625.56
2018-04-17T15:47:51.539Z,102626.17
2018-04-17T15:50:17.741Z,102623.60
2018-04-17T15:52:44.434Z,102625.22
2018-04-17T15:55:11.044Z,102626.22
2018-04-17T15:57:37.216Z,102619.41
2018-04-17T16:00:03.709Z,102634.69
2018-04-17T16:02:30.142Z,102638.48
2018-04-17T16:04:56.503Z,102638.28
2018-04-17T16:07:22.754Z,102633.95
2018-04-17T16:09:49.346Z,102639.34
2018-04-17T16:12:15.581Z,102645.00
2018-04-17T16:14:41.749Z,102651.03
2018-04-17T16:17:08.068Z,102652.23
2018-04-17T16:19:34.344Z,102648.72
2018-04-17T16:22:00.989Z,102648.38
2018-04-17T16:24:27.264Z,102642.41
2018-04-17T16:26:53.524Z,102643.35
2018-04-17T16:29:19.776Z,102644.91
2018-04-17T16:31:45.952Z,102646.87
2018-04-17T16:34:12.375Z,102651.20
2018-04-17T16:36:38.657Z,102648.22
2018-04-17T16:39:05.190Z,102643.97
2018-04-17T16:41:32.445Z,102653.31
2018-04-17T16:43:58.771Z,102643.66
2018-04-17T16:46:27.028Z,102642.02
2018-04-17T16:48:53.201Z,102642.58
2018-04-17T16:51:19.495Z,102642.28
2018-04-17T16:53:45.674Z,102650.03
2018-04-17T16:56:11.909Z,102636.55
2018-04-17T16:58:38.304Z,102636.69
2018-04-17T17:01:04.504Z,102637.27
2018-04-17T17:03:31.080Z,102643.55
2018-04-17T17:05:57.335Z,102638.81
2018-04-17T17:08:23.559Z,102634.84
2018-04-17T17:10:50.585Z,102638.49
2018-04-17T17:13:16.835Z,102639.90
2018-04-17T17:15:43.068Z,102642.22
2018-04-17T17:18:09.787Z,102639.23
2018-04-17T17:20:36.062Z,102623.47
2018-04-17T17:23:02.327Z,102626.66
2018-04-17T17:25:28.624Z,102636.00
2018-04-17T17:27:57.071Z,102634.74
2018-04-17T17:30:23.669Z,102631.73
2018-04-17T17:32:49.828Z,102634.83
2018-04-17T17:35:16.178Z,102635.77
2018-04-17T17:37:42.434Z,102634.02
2018-04-17T17:40:08.578Z,102640.22
2018-04-17T17:42:34.791Z,102648.61
2018-04-17T17:45:01.063Z,102660.09
2018-04-17T17:47:27.503Z,102660.57
2018-04-17T17:49:53.765Z,102668.50
2018-04-17T17:52:26.951Z,102663.25
2018-04-17T17:54:53.257Z,102661.98
2018-04-17T17:57:19.753Z,102655.42
2018-04-17T17:59:45.994Z,102662.92
2018-04-17T18:02:12.202Z,102668.25
2018-04-17T18:04:38.756Z,102666.91
2018-04-17T18:07:04.987Z,102666.50
2018-04-17T18:09:31.182Z,102665.62
2018-04-17T18:11:58.224Z,102666.12
2018-04-17T18:14:24.499Z,102676.28
2018-04-17T18:16:50.678Z,102674.55
2018-04-17T18:19:16.913Z,102675.03
2018-04-17T18:21:43.189Z,102674.20
2018-04-17T18:24:09.402Z,102677.31
2018-04-17T18:26:35.618Z,102684.37
2018-04-17T18:29:01.992Z,102683.50
2018-04-17T18:31:28.456Z,102693.66
2018-04-17T18:33:54.686Z,102694.13
2018-04-17T18:36:20.991Z,102689.30
2018-04-17T18:38:47.228Z,102692.86
2018-04-17T18:41:13.776Z,102692.02
2018-04-17T18:43:40.001Z,102699.06
2018-04-17T18:46:06.695Z,102703.47
2018-04-17T18:48:32.891Z,102704.37
2018-04-17T18:50:59.252Z,102705.73
2018-04-17T18:53:25.655Z,102720.28
2018-04-17T18:55:51.885Z,102714.13
2018-04-17T18:58:18.170Z,102718.11
2018-04-17T19:00:44.418Z,102713.70
2018-04-17T19:03:10.777Z,102717.23
2018-04-17T19:05:36.945Z,102721.64
2018-04-17T19:08:03.087Z,102722.09
2018-04-17T19:10:29.574Z,102724.30
2018-04-17T19:12:55.737Z,102739.27
2018-04-17T19:15:21.940Z,102743.69
2018-04-17T19:17:48.150Z,102750.71
2018-04-17T19:20:14.693Z,102748.07
2018-04-17T19:22:41.093Z,102745.00
2018-04-17T19:25:07.347Z,102748.09
2018-04-17T19:27:33.667Z,102746.37
2018-04-17T19:29:59.889Z,102747.68
2018-04-17T19:32:26.151Z,102739.77
2018-04-17T19:34:52.410Z,102738.49
2018-04-17T19:37:18.675Z,102738.08
2018-04-17T19:39:45.082Z,102743.37
2018-04-17T19:42:11.319Z,102741.63
2018-04-17T19:44:37.573Z,102728.43
2018-04-17T19:47:04.230Z,102725.36
2018-04-17T19:49:31.024Z,102725.33
2018-04-17T19:51:57.215Z,102729.31
2018-04-17T19:54:23.510Z,102725.80
2018-04-17T19:56:49.825Z,102728.01
2018-04-17T19:59:15.996Z,102728.03
2018-04-17T20:01:42.181Z,102728.45
2018-04-17T20:04:08.452Z,102721.02
2018-04-17T20:06:35.370Z,102724.55
2018-04-17T20:09:02.093Z,102730.70
2018-04-17T20:11:29.375Z,102733.79
2018-04-17T20:13:56.330Z,102735.97
2018-04-17T20:16:22.521Z,102737.31
2018-04-17T20:18:48.794Z,102734.69
2018-04-17T20:21:14.982Z,102736.42
2018-04-17T20:23:41.393Z,102733.36
2018-04-17T20:26:08.259Z,102724.58
2018-04-17T20:28:36.349Z,102726.78
2018-04-17T20:31:02.728Z,102724.14
2018-04-17T20:33:29.243Z,102726.34
2018-04-17T20:35:56.463Z,102732.05
2018-04-17T20:38:22.703Z,102738.23
2018-04-17T20:40:49.022Z,102738.64
2018-04-17T20:43:15.583Z,102751.41
2018-04-17T20:45:41.756Z,102745.25
2018-04-17T20:48:08.006Z,102740.86
2018-04-17T20:50:34.311Z,102746.09
2018-04-17T20:53:01.161Z,102747.83
2018-04-17T20:55:27.385Z,102743.42
2018-04-17T20:57:53.622Z,102739.05
2018-04-17T21:00:19.980Z,102735.56
2018-04-17T21:02:46.440Z,102736.89
2018-04-17T21:05:12.766Z,102738.66
2018-04-17T21:07:39.298Z,102743.09
2018-04-17T21:10:05.535Z,102747.50
2018-04-17T21:12:31.745Z,102748.37
2018-04-17T21:14:58.054Z,102749.25
2018-04-17T21:17:24.472Z,102749.27
2018-04-17T21:19:50.795Z,102749.28
2018-04-17T21:22:17.243Z,102745.33
2018-04-17T21:24:43.988Z,102742.27
2018-04-17T21:27:10.201Z,102749.73
2018-04-17T21:29:36.463Z,102757.21
2018-04-17T21:32:02.909Z,102758.55
2018-04-17T21:34:29.564Z,102760.31
2018-04-17T21:36:55.975Z,102762.53
2018-04-17T21:39:22.331Z,102762.53
2018-04-17T21:41:48.708Z,102770.44
2018-04-17T21:44:15.101Z,102768.23
2018-04-17T21:46:41.277Z,102777.48
2018-04-17T21:49:07.699Z,102775.28
2018-04-17T21:51:33.894Z,102781.91
2018-04-17T21:54:00.068Z,102781.91
2018-04-17T21:56:26.414Z,102777.09
2018-04-17T21:58:52.931Z,102778.44
2018-04-17T22:01:20.041Z,102779.29
2018-04-17T22:03:46.362Z,102782.80
2018-04-17T22:06:12.881Z,102772.69
2018-04-17T22:08:39.053Z,102772.69
2018-04-17T22:11:05.281Z,102773.10
2018-04-17T22:13:32.040Z,102770.03
2018-04-17T22:15:58.272Z,102772.67
2018-04-17T22:18:24.563Z,102776.63
2018-04-17T22:20:52.093Z,102780.61
2018-04-17T22:23:18.391Z,102786.34
2018-04-17T22:25:45.329Z,102783.25
2018-04-17T22:28:11.689Z,102795.58
2018-04-17T22:30:38.055Z,102796.86
2018-04-17T22:33:04.290Z,102803.02
2018-04-17T22:35:30.457Z,102803.45
2018-04-17T22:37:56.766Z,102808.70
2018-04-17T22:40:23.042Z,102815.73
2018-04-17T22:42:49.628Z,102821.47
2018-04-17T22:45:15.924Z,102821.45
2018-04-17T22:47:42.153Z,102814.00
2018-04-17T22:50:08.541Z,102812.70
2018-04-17T22:52:34.834Z,102810.94
2018-04-17T22:55:01.093Z,102820.63
2018-04-17T22:57:27.621Z,102816.21
2018-04-17T22:59:54.413Z,102814.02
2018-04-17T23:02:20.646Z,102809.63
2018-04-17T23:04:47.549Z,102816.67
2018-04-17T23:07:13.996Z,102821.53
2018-04-17T23:09:40.204Z,102821.51
2018-04-17T23:12:06.790Z,102818.87
2018-04-17T23:14:33.709Z,102818.84
2018-04-17T23:17:00.322Z,102813.59
2018-04-17T23:19:26.526Z,102819.27
2018-04-17T23:21:52.736Z,102815.76
2018-04-17T23:24:18.922Z,102824.12
2018-04-17T23:26:45.131Z,102821.95
2018-04-17T23:29:11.302Z,102821.52
2018-04-17T23:31:37.857Z,102826.34
2018-04-17T23:34:04.126Z,102821.97
2018-04-17T23:36:30.298Z,102814.95
2018-04-17T23:38:56.499Z,102821.98
2018-04-17T23:41:22.669Z,102829.91
2018-04-17T23:46:21.818Z,102833.42
2018-04-17T23:48:47.984Z,102836.05
2018-04-17T23:51:14.553Z,102832.99
2018-04-17T23:53:40.953Z,102834.33
2018-04-17T23:56:07.129Z,102832.99
2018-04-17T23:58:33.366Z,102838.27
